createdAt,value
2022-12-09T00:00:07.993Z,943.53
2022-12-09T00:01:07.592Z,943.55
2022-12-09T00:02:07.772Z,943.57
2022-12-09T00:03:07.697Z,943.53
2022-12-09T00:04:07.683Z,943.54
2022-12-09T00:05:07.639Z,943.52
2022-12-09T00:06:07.455Z,943.5
2022-12-09T00:07:07.700Z,943.54
2022-12-09T00:08:07.504Z,943.52
2022-12-09T00:09:07.497Z,943.53
2022-12-09T00:10:07.891Z,943.52
2022-12-09T00:11:07.443Z,943.56
2022-12-09T00:12:07.395Z,943.5
2022-12-09T00:13:07.333Z,943.59
2022-12-09T00:14:07.299Z,943.49
2022-12-09T00:15:07.277Z,943.5
2022-12-09T00:16:07.359Z,943.51
2022-12-09T00:17:07.539Z,943.5
2022-12-09T00:18:07.222Z,943.48
2022-12-09T00:19:07.412Z,943.52
2022-12-09T00:20:07.489Z,943.48
2022-12-09T00:21:07.158Z,943.53
2022-12-09T00:22:07.337Z,943.5
2022-12-09T00:23:07.119Z,943.43
2022-12-09T00:24:07.114Z,943.46
2022-12-09T00:25:07.248Z,943.46
2022-12-09T00:26:07.061Z,943.4
2022-12-09T00:27:07.042Z,943.39
2022-12-09T00:28:07.034Z,943.36
2022-12-09T00:29:07.004Z,943.38
2022-12-09T00:30:07.616Z,943.43
2022-12-09T00:31:07.050Z,943.42
2022-12-09T00:32:07.077Z,943.44
2022-12-09T00:33:07.032Z,943.46
2022-12-09T00:34:06.904Z,943.45
2022-12-09T00:35:06.996Z,943.48
2022-12-09T00:36:06.922Z,943.46
2022-12-09T00:37:07.048Z,943.42
2022-12-09T00:38:06.823Z,943.47
2022-12-09T00:39:07.013Z,943.43
2022-12-09T00:40:07.192Z,943.41
2022-12-09T00:41:06.982Z,943.43
2022-12-09T00:42:06.899Z,943.44
2022-12-09T00:43:06.868Z,943.4
2022-12-09T00:44:06.867Z,943.45
2022-12-09T00:45:06.686Z,943.43
2022-12-09T00:46:06.942Z,943.39
2022-12-09T00:47:06.679Z,943.47
2022-12-09T00:48:06.835Z,943.46
2022-12-09T00:49:06.619Z,943.49
2022-12-09T00:50:07.260Z,943.48
2022-12-09T00:51:06.716Z,943.49
2022-12-09T00:52:06.548Z,943.48
2022-12-09T00:53:06.533Z,943.52
2022-12-09T00:54:06.538Z,943.52
2022-12-09T00:55:06.644Z,943.51
2022-12-09T00:56:06.492Z,943.46
2022-12-09T00:57:06.449Z,943.48
2022-12-09T00:58:06.470Z,943.46
2022-12-09T00:59:06.447Z,943.51
2022-12-09T01:00:06.885Z,943.52
2022-12-09T01:01:06.517Z,943.49
2022-12-09T01:02:06.446Z,943.51
2022-12-09T01:03:06.732Z,943.5
2022-12-09T01:04:06.450Z,943.54
2022-12-09T01:05:06.517Z,943.55
2022-12-09T01:06:06.348Z,943.52
2022-12-09T01:07:06.248Z,943.53
2022-12-09T01:08:06.355Z,943.54
2022-12-09T01:09:06.296Z,943.57
2022-12-09T01:10:06.726Z,943.55
2022-12-09T01:11:06.164Z,943.52
2022-12-09T01:12:06.254Z,943.51
2022-12-09T01:13:06.181Z,943.53
2022-12-09T01:14:06.198Z,943.52
2022-12-09T01:15:06.308Z,943.56
2022-12-09T01:16:06.158Z,943.53
2022-12-09T01:17:06.293Z,943.5
2022-12-09T01:18:06.142Z,943.53
2022-12-09T01:19:06.004Z,943.53
2022-12-09T01:20:06.363Z,943.54
2022-12-09T01:21:06.000Z,943.53
2022-12-09T01:22:05.941Z,943.54
2022-12-09T01:23:05.924Z,943.54
2022-12-09T01:24:06.192Z,943.57
2022-12-09T01:25:05.927Z,943.55
2022-12-09T01:26:06.081Z,943.58
2022-12-09T01:27:06.052Z,943.57
2022-12-09T01:28:06.133Z,943.58
2022-12-09T01:29:05.821Z,943.57
2022-12-09T01:30:06.235Z,943.61
2022-12-09T01:31:05.831Z,943.61
2022-12-09T01:32:05.851Z,943.61
2022-12-09T01:33:06.142Z,943.61
2022-12-09T01:34:05.783Z,943.61
2022-12-09T01:35:05.681Z,943.6
2022-12-09T01:36:05.971Z,943.57
2022-12-09T01:37:05.684Z,943.6
2022-12-09T01:38:05.620Z,943.56
2022-12-09T01:39:05.692Z,943.56
2022-12-09T01:40:05.968Z,943.55
2022-12-09T01:41:05.583Z,943.57
2022-12-09T01:42:05.823Z,943.57
2022-12-09T01:43:05.620Z,943.58
2022-12-09T01:44:05.496Z,943.56
2022-12-09T01:45:05.525Z,943.58
2022-12-09T01:46:05.479Z,943.58
2022-12-09T01:47:05.596Z,943.57
2022-12-09T01:48:05.527Z,943.54
2022-12-09T01:49:05.712Z,943.51
2022-12-09T01:50:05.668Z,943.53
2022-12-09T01:51:05.389Z,943.51
2022-12-09T01:52:05.386Z,943.5
2022-12-09T01:53:05.316Z,943.52
2022-12-09T01:54:05.692Z,943.48
2022-12-09T01:55:05.411Z,943.48
2022-12-09T01:56:05.378Z,943.44
2022-12-09T01:57:05.405Z,943.43
2022-12-09T01:58:05.258Z,943.42
2022-12-09T01:59:05.270Z,943.44
2022-12-09T02:00:05.455Z,943.4
2022-12-09T02:01:05.394Z,943.41
2022-12-09T02:02:05.203Z,943.43
2022-12-09T02:03:05.215Z,943.39
2022-12-09T02:04:05.274Z,943.37
2022-12-09T02:05:05.233Z,943.37
2022-12-09T02:06:05.100Z,943.43
2022-12-09T02:07:05.238Z,943.34
2022-12-09T02:08:05.635Z,943.36
2022-12-09T02:09:05.326Z,943.34
2022-12-09T02:10:06.193Z,943.35
2022-12-09T02:11:05.506Z,943.31
2022-12-09T02:12:05.261Z,943.31
2022-12-09T02:13:05.209Z,943.34
2022-12-09T02:14:05.143Z,943.31
2022-12-09T02:15:05.395Z,943.35
2022-12-09T02:16:05.278Z,943.32
2022-12-09T02:17:05.197Z,943.33
2022-12-09T02:18:05.247Z,943.27
2022-12-09T02:19:05.205Z,943.24
2022-12-09T02:20:05.638Z,943.27
2022-12-09T02:21:05.161Z,943.25
2022-12-09T02:22:05.209Z,943.28
2022-12-09T02:23:05.033Z,943.24
2022-12-09T02:24:04.921Z,943.23
2022-12-09T02:25:05.187Z,943.23
2022-12-09T02:26:05.233Z,943.26
2022-12-09T02:27:04.993Z,943.2
2022-12-09T02:28:04.818Z,943.18
2022-12-09T02:29:05.022Z,943.18
2022-12-09T02:30:05.181Z,943.16
2022-12-09T02:31:05.210Z,943.17
2022-12-09T02:32:04.770Z,943.16
2022-12-09T02:33:05.053Z,943.2
2022-12-09T02:34:04.944Z,943.19
2022-12-09T02:35:04.822Z,943.26
2022-12-09T02:36:05.038Z,943.24
2022-12-09T02:37:04.934Z,943.24
2022-12-09T02:38:04.801Z,943.27
2022-12-09T02:39:04.939Z,943.25
2022-12-09T02:40:05.227Z,943.26
2022-12-09T02:41:04.840Z,943.29
2022-12-09T02:42:04.533Z,943.24
2022-12-09T02:43:04.670Z,943.24
2022-12-09T02:44:04.795Z,943.22
2022-12-09T02:45:04.530Z,943.2
2022-12-09T02:46:04.779Z,943.19
2022-12-09T02:47:04.711Z,943.19
2022-12-09T02:48:04.640Z,943.15
2022-12-09T02:49:04.395Z,943.12
2022-12-09T02:50:04.752Z,943.16
2022-12-09T02:51:04.383Z,943.18
2022-12-09T02:52:04.368Z,943.17
2022-12-09T02:53:04.319Z,943.17
2022-12-09T02:54:04.643Z,943.16
2022-12-09T02:55:04.276Z,943.08
2022-12-09T02:56:04.404Z,943.08
2022-12-09T02:57:04.492Z,943.06
2022-12-09T02:58:04.207Z,943.06
2022-12-09T02:59:04.377Z,943.06
2022-12-09T03:00:04.657Z,943.06
2022-12-09T03:01:04.499Z,943.04
2022-12-09T03:02:04.615Z,943.03
2022-12-09T03:03:04.591Z,943
2022-12-09T03:04:04.194Z,943.01
2022-12-09T03:05:04.066Z,943.03
2022-12-09T03:06:04.044Z,943.06
2022-12-09T03:07:04.025Z,943.01
2022-12-09T03:08:04.086Z,943.01
2022-12-09T03:09:04.091Z,943.01
2022-12-09T03:10:04.652Z,943
2022-12-09T03:11:04.006Z,943.04
2022-12-09T03:12:03.947Z,943
2022-12-09T03:13:04.000Z,943
2022-12-09T03:14:03.881Z,942.96
2022-12-09T03:15:03.927Z,942.98
2022-12-09T03:16:03.937Z,942.97
2022-12-09T03:17:04.080Z,942.96
2022-12-09T03:18:04.116Z,942.95
2022-12-09T03:19:03.857Z,942.97
2022-12-09T03:20:03.939Z,942.95
2022-12-09T03:21:03.868Z,942.97
2022-12-09T03:22:03.980Z,942.92
2022-12-09T03:23:03.697Z,942.92
2022-12-09T03:24:03.885Z,942.93
2022-12-09T03:25:03.684Z,942.93
2022-12-09T03:26:03.637Z,942.88
2022-12-09T03:27:03.637Z,942.84
2022-12-09T03:28:03.979Z,942.86
2022-12-09T03:29:03.945Z,942.89
2022-12-09T03:30:03.625Z,942.81
2022-12-09T03:31:03.761Z,942.81
2022-12-09T03:32:03.622Z,942.78
2022-12-09T03:33:03.845Z,942.8
2022-12-09T03:50:04.160Z,942.64
2022-12-09T03:51:04.135Z,942.65
2022-12-09T03:52:03.918Z,942.6
2022-12-09T03:53:03.893Z,942.67
2022-12-09T03:54:03.983Z,942.64
2022-12-09T03:55:03.886Z,942.67
2022-12-09T03:56:03.904Z,942.67
2022-12-09T03:57:04.145Z,942.65
2022-12-09T03:58:03.834Z,942.64
2022-12-09T03:59:03.762Z,942.68
2022-12-09T04:00:04.160Z,942.72
2022-12-09T04:01:04.057Z,942.71
2022-12-09T04:02:03.907Z,942.72
2022-12-09T04:03:04.184Z,942.72
2022-12-09T04:04:03.890Z,942.7
2022-12-09T04:05:04.119Z,942.73
2022-12-09T04:06:03.816Z,942.71
2022-12-09T04:07:03.905Z,942.7
2022-12-09T04:08:03.639Z,942.66
2022-12-09T04:09:03.621Z,942.68
2022-12-09T04:10:03.821Z,942.68
2022-12-09T04:11:03.864Z,942.72
2022-12-09T04:12:03.554Z,942.69
2022-12-09T04:13:03.833Z,942.73
2022-12-09T04:14:03.715Z,942.73
2022-12-09T04:15:03.420Z,942.73
2022-12-09T04:16:03.403Z,942.74
2022-12-09T04:17:03.474Z,942.68
2022-12-09T04:18:03.538Z,942.68
2022-12-09T04:19:03.360Z,942.69
2022-12-09T04:20:03.801Z,942.64
2022-12-09T04:21:03.445Z,942.7
2022-12-09T04:22:03.607Z,942.65
2022-12-09T04:23:03.580Z,942.66
2022-12-09T04:24:03.248Z,942.65
2022-12-09T04:25:03.555Z,942.65
2022-12-09T04:26:03.323Z,942.65
2022-12-09T04:27:03.185Z,942.65
2022-12-09T04:28:03.529Z,942.67
2022-12-09T04:29:03.196Z,942.72
2022-12-09T04:30:03.520Z,942.65
2022-12-09T04:31:03.286Z,942.65
2022-12-09T04:32:03.128Z,942.58
2022-12-09T04:33:03.077Z,942.61
2022-12-09T04:34:08.835Z,942.59
2022-12-09T04:35:03.095Z,942.58
2022-12-09T04:36:02.981Z,942.6
2022-12-09T04:37:03.056Z,942.6
2022-12-09T04:38:03.284Z,942.6
2022-12-09T04:39:03.024Z,942.58
2022-12-09T04:40:03.234Z,942.58
2022-12-09T04:41:03.213Z,942.53
2022-12-09T04:42:02.860Z,942.52
2022-12-09T04:43:03.142Z,942.49
2022-12-09T04:44:03.112Z,942.51
2022-12-09T04:45:03.047Z,942.48
2022-12-09T04:46:02.936Z,942.52
2022-12-09T04:47:02.858Z,942.52
2022-12-09T04:48:03.018Z,942.54
2022-12-09T04:49:03.143Z,942.56
2022-12-09T04:50:02.916Z,942.56
2022-12-09T04:51:03.188Z,942.52
2022-12-09T04:52:03.015Z,942.57
2022-12-09T04:53:02.953Z,942.48
2022-12-09T04:54:02.629Z,942.54
2022-12-09T04:55:02.614Z,942.51
2022-12-09T04:56:02.902Z,942.57
2022-12-09T04:57:02.595Z,942.54
2022-12-09T04:58:02.516Z,942.57
2022-12-09T04:59:02.527Z,942.56
2022-12-09T05:00:02.600Z,942.54
2022-12-09T05:01:02.668Z,942.52
2022-12-09T05:02:02.537Z,942.51
2022-12-09T05:03:02.602Z,942.54
2022-12-09T05:04:02.956Z,942.52
2022-12-09T05:05:03.802Z,942.54
2022-12-09T05:06:03.361Z,942.54
2022-12-09T05:07:03.369Z,942.57
2022-12-09T05:08:03.371Z,942.57
2022-12-09T05:09:03.495Z,942.56
2022-12-09T05:10:03.399Z,942.54
2022-12-09T05:11:03.310Z,942.56
2022-12-09T05:12:03.458Z,942.6
2022-12-09T05:13:03.326Z,942.56
2022-12-09T05:14:03.155Z,942.62
2022-12-09T05:15:03.379Z,942.55
2022-12-09T05:16:03.180Z,942.58
2022-12-09T05:17:03.121Z,942.56
2022-12-09T05:18:03.245Z,942.58
2022-12-09T05:19:03.198Z,942.58
2022-12-09T05:20:03.312Z,942.57
2022-12-09T05:21:03.012Z,942.54
2022-12-09T05:22:02.972Z,942.58
2022-12-09T05:23:07.592Z,942.59
2022-12-09T05:24:03.090Z,942.55
2022-12-09T05:25:02.931Z,942.58
2022-12-09T05:26:03.114Z,942.52
2022-12-09T05:27:03.254Z,942.55
2022-12-09T05:28:02.806Z,942.52
2022-12-09T05:29:03.054Z,942.5
2022-12-09T05:30:02.848Z,942.53
2022-12-09T05:31:03.169Z,942.5
2022-12-09T05:32:02.973Z,942.51
2022-12-09T05:33:02.832Z,942.54
2022-12-09T05:34:02.989Z,942.51
2022-12-09T05:35:02.786Z,942.49
2022-12-09T05:36:02.700Z,942.54
2022-12-09T05:37:03.000Z,942.51
2022-12-09T05:38:02.836Z,942.52
2022-12-09T05:39:02.661Z,942.56
2022-12-09T05:40:02.585Z,942.54
2022-12-09T05:41:02.796Z,942.5
2022-12-09T05:42:02.556Z,942.5
2022-12-09T05:43:02.844Z,942.53
2022-12-09T05:44:02.829Z,942.52
2022-12-09T05:45:02.485Z,942.51
2022-12-09T05:46:02.894Z,942.55
2022-12-09T05:47:02.822Z,942.52
2022-12-09T05:48:02.447Z,942.5
2022-12-09T05:49:02.871Z,942.48
2022-12-09T05:50:07.506Z,942.49
2022-12-09T05:51:02.763Z,942.46
2022-12-09T05:52:02.636Z,942.47
2022-12-09T05:53:02.246Z,942.5
2022-12-09T05:54:02.736Z,942.43
2022-12-09T05:55:02.471Z,942.43
2022-12-09T05:56:02.540Z,942.45
2022-12-09T05:57:02.284Z,942.41
2022-12-09T05:58:02.273Z,942.39
2022-12-09T05:59:02.505Z,942.4
2022-12-09T06:00:02.248Z,942.38
2022-12-09T06:01:02.494Z,942.39
2022-12-09T06:02:06.870Z,942.39
2022-12-09T06:03:02.604Z,942.38
2022-12-09T06:04:02.172Z,942.43
2022-12-09T06:05:02.180Z,942.44
2022-12-09T06:06:02.589Z,942.36
2022-12-09T06:07:02.170Z,942.39
2022-12-09T06:08:06.537Z,942.4
2022-12-09T06:09:02.094Z,942.44
2022-12-09T06:10:02.077Z,942.39
2022-12-09T06:11:02.295Z,942.42
2022-12-09T06:12:01.884Z,942.38
2022-12-09T06:13:01.930Z,942.4
2022-12-09T06:14:02.188Z,942.4
2022-12-09T06:15:02.123Z,942.39
2022-12-09T06:16:02.095Z,942.36
2022-12-09T06:17:01.929Z,942.36
2022-12-09T06:18:02.049Z,942.35
2022-12-09T06:19:02.092Z,942.35
2022-12-09T06:20:01.728Z,942.36
2022-12-09T06:21:02.065Z,942.35
2022-12-09T06:22:01.990Z,942.33
2022-12-09T06:23:01.915Z,942.34
2022-12-09T06:24:01.921Z,942.36
2022-12-09T06:25:01.565Z,942.32
2022-12-09T06:26:01.757Z,942.32
2022-12-09T06:27:01.633Z,942.3
2022-12-09T06:28:01.583Z,942.32
2022-12-09T06:29:01.782Z,942.28
2022-12-09T06:30:01.856Z,942.31
2022-12-09T06:31:01.710Z,942.29
2022-12-09T06:32:01.801Z,942.28
2022-12-09T06:33:01.502Z,942.26
2022-12-09T06:34:02.021Z,942.26
2022-12-09T06:35:02.202Z,942.26
2022-12-09T06:36:01.655Z,942.25
2022-12-09T06:37:02.015Z,942.29
2022-12-09T06:38:01.752Z,942.28
2022-12-09T06:39:07.873Z,942.22
2022-12-09T06:40:01.667Z,942.21
2022-12-09T06:41:01.683Z,942.26
2022-12-09T06:42:01.763Z,942.25
2022-12-09T06:43:01.464Z,942.25
2022-12-09T06:44:01.531Z,942.21
2022-12-09T06:45:01.794Z,942.22
2022-12-09T06:46:01.447Z,942.21
2022-12-09T06:47:01.786Z,942.2
2022-12-09T06:48:01.841Z,942.18
2022-12-09T06:49:01.776Z,942.17
2022-12-09T06:50:06.420Z,942.16
2022-12-09T06:51:01.765Z,942.17
2022-12-09T06:52:01.326Z,942.17
2022-12-09T06:53:01.411Z,942.2
2022-12-09T06:54:01.668Z,942.17
2022-12-09T06:55:01.414Z,942.16
2022-12-09T06:56:05.177Z,942.14
2022-12-09T06:57:01.290Z,942.13
2022-12-09T06:58:01.193Z,942.15
2022-12-09T06:59:01.265Z,942.16
2022-12-09T07:00:01.227Z,942.17
2022-12-09T07:01:01.433Z,942.21
2022-12-09T07:02:01.329Z,942.22
2022-12-09T07:03:01.179Z,942.2
2022-12-09T07:04:01.237Z,942.18
2022-12-09T07:05:01.204Z,942.16
2022-12-09T07:06:01.622Z,942.22
2022-12-09T07:07:01.441Z,942.2
2022-12-09T07:08:01.139Z,942.2
2022-12-09T07:09:01.200Z,942.27
2022-12-09T07:10:01.189Z,942.25
2022-12-09T07:11:01.141Z,942.23
2022-12-09T07:12:01.098Z,942.29
2022-12-09T07:13:01.191Z,942.27
2022-12-09T07:14:01.362Z,942.27
2022-12-09T07:15:01.234Z,942.25
2022-12-09T07:16:01.299Z,942.28
2022-12-09T07:17:00.884Z,942.22
2022-12-09T07:18:01.122Z,942.21
2022-12-09T07:19:01.002Z,942.22
2022-12-09T07:20:06.499Z,942.17
2022-12-09T07:21:01.107Z,942.12
2022-12-09T07:22:00.688Z,942.12
2022-12-09T07:23:00.624Z,942.12
2022-12-09T07:24:00.756Z,942.16
2022-12-09T07:25:00.929Z,942.13
2022-12-09T07:26:01.040Z,942.19
2022-12-09T07:27:04.672Z,942.14
2022-12-09T07:28:00.743Z,942.2
2022-12-09T07:29:00.632Z,942.16
2022-12-09T07:30:00.660Z,942.2
2022-12-09T07:31:00.675Z,942.21
2022-12-09T07:32:00.890Z,942.21
2022-12-09T07:33:00.725Z,942.24
2022-12-09T07:34:00.996Z,942.21
2022-12-09T07:35:00.560Z,942.2
2022-12-09T07:36:00.407Z,942.24
2022-12-09T07:37:00.494Z,942.21
2022-12-09T07:38:00.474Z,942.19
2022-12-09T07:39:00.380Z,942.18
2022-12-09T07:40:00.329Z,942.15
2022-12-09T07:41:00.258Z,942.11
2022-12-09T07:42:00.327Z,942.08
2022-12-09T07:43:00.391Z,942.14
2022-12-09T07:44:00.536Z,942.09
2022-12-09T07:45:00.257Z,942.06
2022-12-09T07:46:00.320Z,942.11
2022-12-09T07:47:00.267Z,942.12
2022-12-09T07:48:00.657Z,942.12
2022-12-09T07:49:00.322Z,942.14
2022-12-09T07:50:04.577Z,942.11
2022-12-09T07:51:00.177Z,942.16
2022-12-09T07:52:00.097Z,942.16
2022-12-09T07:53:00.186Z,942.12
2022-12-09T07:54:00.251Z,942.11
2022-12-09T07:55:00.017Z,942.14
2022-12-09T07:56:00.394Z,942.16
2022-12-09T07:57:00.378Z,942.13
2022-12-09T07:58:00.265Z,942.12
2022-12-09T07:59:00.127Z,942.15
2022-12-09T07:59:59.969Z,942.14
2022-12-09T08:00:59.813Z,942.13
2022-12-09T08:02:04.266Z,942.18
2022-12-09T08:03:00.070Z,942.18
2022-12-09T08:04:00.381Z,942.19
2022-12-09T08:05:00.089Z,942.19
2022-12-09T08:06:00.305Z,942.18
2022-12-09T08:06:59.937Z,942.2
2022-12-09T08:07:59.926Z,942.19
2022-12-09T08:08:59.901Z,942.16
2022-12-09T08:10:00.138Z,942.14
2022-12-09T08:10:59.855Z,942.14
2022-12-09T08:11:59.692Z,942.16
2022-12-09T08:12:59.984Z,942.08
2022-12-09T08:14:00.074Z,942.09
2022-12-09T08:14:59.644Z,942.14
2022-12-09T08:15:59.927Z,942.11
2022-12-09T08:16:59.627Z,942.1
2022-12-09T08:17:59.533Z,942.1
2022-12-09T08:19:00.016Z,942.11
2022-12-09T08:19:59.544Z,942.09
2022-12-09T08:20:59.491Z,942.17
2022-12-09T08:21:59.752Z,942.16
2022-12-09T08:22:59.394Z,942.2
2022-12-09T08:23:59.790Z,942.16
2022-12-09T08:24:59.588Z,942.17
2022-12-09T08:25:59.388Z,942.19
2022-12-09T08:26:59.512Z,942.14
2022-12-09T08:27:59.427Z,942.18
2022-12-09T08:28:59.791Z,942.16
2022-12-09T08:29:59.275Z,942.16
2022-12-09T08:30:59.493Z,942.15
2022-12-09T08:31:59.333Z,942.15
2022-12-09T08:32:59.226Z,942.15
2022-12-09T08:33:59.382Z,942.15
2022-12-09T08:34:59.330Z,942.13
2022-12-09T08:35:59.324Z,942.11
2022-12-09T08:37:02.116Z,942.08
2022-12-09T08:37:59.483Z,942.11
2022-12-09T08:38:59.427Z,942.06
2022-12-09T08:39:59.049Z,942.09
2022-12-09T08:40:59.171Z,942.05
2022-12-09T08:41:59.423Z,942.07
2022-12-09T08:42:59.321Z,942.04
2022-12-09T08:43:59.235Z,942.02
2022-12-09T08:45:02.280Z,942.05
2022-12-09T08:45:58.931Z,942.05
2022-12-09T08:46:59.361Z,942.07
2022-12-09T08:47:58.950Z,942.06
2022-12-09T08:48:59.296Z,942.06
2022-12-09T08:49:59.135Z,942.05
2022-12-09T08:50:59.220Z,942.07
2022-12-09T08:51:58.931Z,942.02
2022-12-09T08:52:59.054Z,942.01
2022-12-09T08:53:58.925Z,942.04
2022-12-09T08:54:59.248Z,942.08
2022-12-09T08:55:58.898Z,942.08
2022-12-09T08:56:59.796Z,942.06
2022-12-09T08:58:00.034Z,942.04
2022-12-09T08:58:59.638Z,942.06
2022-12-09T08:59:59.812Z,942.04
2022-12-09T09:00:59.696Z,942.04
2022-12-09T09:01:59.620Z,942.01
2022-12-09T09:02:59.963Z,941.96
2022-12-09T09:03:59.581Z,942.03
2022-12-09T09:04:59.534Z,942.03
2022-12-09T09:06:03.820Z,942.07
2022-12-09T09:06:59.542Z,942.05
2022-12-09T09:07:59.517Z,942.05
2022-12-09T09:08:59.559Z,942
2022-12-09T09:09:59.637Z,942.04
2022-12-09T09:10:59.447Z,942.04
2022-12-09T09:11:59.372Z,941.99
2022-12-09T09:12:59.601Z,942
2022-12-09T09:13:59.483Z,942.03
2022-12-09T09:14:59.312Z,942.04
2022-12-09T09:15:59.323Z,942.01
2022-12-09T09:16:59.351Z,942
2022-12-09T09:17:59.715Z,941.99
2022-12-09T09:18:59.311Z,942
2022-12-09T09:19:59.335Z,942.02
2022-12-09T09:20:59.577Z,941.97
2022-12-09T09:21:59.264Z,941.94
2022-12-09T09:23:03.008Z,941.94
2022-12-09T09:23:59.648Z,941.95
2022-12-09T09:24:59.042Z,941.93
2022-12-09T09:25:59.155Z,941.96
2022-12-09T09:26:59.070Z,941.87
2022-12-09T09:27:59.113Z,941.9
2022-12-09T09:28:59.279Z,941.93
2022-12-09T09:29:59.410Z,941.87
2022-12-09T09:30:58.959Z,941.88
2022-12-09T09:31:59.181Z,941.84
2022-12-09T09:32:59.263Z,941.79
2022-12-09T09:33:59.052Z,941.84
2022-12-09T09:34:58.952Z,941.8
2022-12-09T09:35:59.108Z,941.79
2022-12-09T09:36:59.266Z,941.77
2022-12-09T09:37:58.816Z,941.72
2022-12-09T09:38:58.798Z,941.73
2022-12-09T09:39:58.949Z,941.68
2022-12-09T09:40:58.835Z,941.71
2022-12-09T09:42:02.085Z,941.64
2022-12-09T09:42:58.802Z,941.63
2022-12-09T09:43:59.014Z,941.64
2022-12-09T09:44:58.947Z,941.61
2022-12-09T09:45:58.769Z,941.61
2022-12-09T09:46:58.771Z,941.6
2022-12-09T09:47:59.209Z,941.55
2022-12-09T09:48:59.839Z,941.56
2022-12-09T09:49:59.659Z,941.56
2022-12-09T09:50:59.281Z,941.5
2022-12-09T09:51:59.319Z,941.51
2022-12-09T09:52:59.288Z,941.52
2022-12-09T09:54:03.728Z,941.5
2022-12-09T09:54:59.336Z,941.52
2022-12-09T09:55:59.191Z,941.49
2022-12-09T09:56:59.370Z,941.48
2022-12-09T09:57:59.536Z,941.45
2022-12-09T09:58:59.559Z,941.44
2022-12-09T10:00:03.624Z,941.4
2022-12-09T10:00:59.146Z,941.36
2022-12-09T10:01:59.282Z,941.37
2022-12-09T10:02:59.548Z,941.31
2022-12-09T10:03:59.458Z,941.4
2022-12-09T10:04:59.173Z,941.33
2022-12-09T10:05:59.609Z,941.35
2022-12-09T10:07:02.665Z,941.32
2022-12-09T10:07:59.365Z,941.36
2022-12-09T10:08:59.431Z,941.28
2022-12-09T10:09:59.025Z,941.31
2022-12-09T10:10:59.557Z,941.27
2022-12-09T10:11:59.428Z,941.2
2022-12-09T10:13:05.188Z,941.23
2022-12-09T10:13:59.464Z,941.22
2022-12-09T10:14:59.085Z,941.18
2022-12-09T10:15:59.365Z,941.14
2022-12-09T10:16:59.330Z,941.12
2022-12-09T10:17:58.757Z,941.09
2022-12-09T10:19:04.164Z,941.09
2022-12-09T10:19:59.179Z,941.06
2022-12-09T10:20:58.910Z,941.08
2022-12-09T10:21:59.088Z,941.03
2022-12-09T10:22:59.011Z,941
2022-12-09T10:23:58.859Z,941
2022-12-09T10:24:58.998Z,940.96
2022-12-09T10:25:58.815Z,940.98
2022-12-09T10:26:58.745Z,941.01
2022-12-09T10:27:58.957Z,941
2022-12-09T10:28:58.680Z,940.97
2022-12-09T10:29:58.512Z,941.01
2022-12-09T10:30:58.939Z,940.97
2022-12-09T10:31:58.619Z,941.04
2022-12-09T10:32:58.748Z,941.02
2022-12-09T10:33:58.912Z,941
2022-12-09T10:34:58.486Z,941.02
2022-12-09T10:35:58.414Z,941.01
2022-12-09T10:36:58.460Z,940.95
2022-12-09T10:37:58.340Z,941.03
2022-12-09T10:38:58.338Z,941.01
2022-12-09T10:39:58.723Z,940.98
2022-12-09T10:40:58.502Z,940.97
2022-12-09T10:41:58.387Z,940.97
2022-12-09T10:42:58.758Z,941
2022-12-09T10:43:58.606Z,940.98
2022-12-09T10:44:58.651Z,941
2022-12-09T10:46:58.318Z,940.99
2022-12-09T10:47:58.243Z,941
2022-12-09T10:48:58.230Z,940.97
2022-12-09T10:49:58.451Z,940.96
2022-12-09T10:50:58.498Z,940.97
2022-12-09T10:51:58.103Z,940.94
2022-12-09T10:52:58.128Z,940.94
2022-12-09T10:53:58.656Z,940.94
2022-12-09T10:54:58.092Z,940.97
2022-12-09T10:55:58.158Z,940.98
2022-12-09T10:56:58.155Z,940.98
2022-12-09T10:57:58.282Z,941
2022-12-09T10:58:57.930Z,940.95
2022-12-09T10:59:58.662Z,940.93
2022-12-09T11:00:58.361Z,940.93
2022-12-09T11:01:58.585Z,940.88
2022-12-09T11:02:58.305Z,940.85
2022-12-09T11:03:57.992Z,940.89
2022-12-09T11:04:58.136Z,940.92
2022-12-09T11:05:58.045Z,940.89
2022-12-09T11:07:00.024Z,940.88
2022-12-09T11:07:58.359Z,940.93
2022-12-09T11:08:58.169Z,940.86
2022-12-09T11:09:58.073Z,940.91
2022-12-09T11:10:57.815Z,940.88
2022-12-09T11:11:57.803Z,940.86
2022-12-09T11:12:57.902Z,940.89
2022-12-09T11:13:57.690Z,940.86
2022-12-09T11:14:57.732Z,940.92
2022-12-09T11:15:57.666Z,940.91
2022-12-09T11:16:58.100Z,940.85
2022-12-09T11:17:57.831Z,940.88
2022-12-09T11:18:57.716Z,940.93
2022-12-09T11:19:57.644Z,940.92
2022-12-09T11:20:58.003Z,940.9
2022-12-09T11:21:57.606Z,940.9
2022-12-09T11:22:57.681Z,940.86
2022-12-09T11:24:03.173Z,940.83
2022-12-09T11:24:57.597Z,940.83
2022-12-09T11:25:57.709Z,940.84
2022-12-09T11:26:58.037Z,940.8
2022-12-09T11:27:57.754Z,940.85
2022-12-09T11:28:57.585Z,940.82
2022-12-09T11:29:57.704Z,940.83
2022-12-09T11:31:27.483Z,940.84
2022-12-09T11:31:57.722Z,940.82
2022-12-09T11:32:57.718Z,940.81
2022-12-09T11:33:58.065Z,940.88
2022-12-09T11:34:57.593Z,940.87
2022-12-09T11:35:57.359Z,940.89
2022-12-09T11:36:57.181Z,940.82
2022-12-09T11:37:57.159Z,940.85
2022-12-09T11:38:57.142Z,940.86
2022-12-09T11:39:57.121Z,940.85
2022-12-09T11:40:57.103Z,940.85
2022-12-09T11:41:57.088Z,940.81
2022-12-09T11:42:57.090Z,940.85
2022-12-09T11:43:57.043Z,940.85
2022-12-09T11:44:57.032Z,940.85
2022-12-09T11:45:57.003Z,940.83
2022-12-09T11:46:57.069Z,940.83
2022-12-09T11:48:24.438Z,940.83
2022-12-09T11:48:56.945Z,940.83
2022-12-09T11:49:57.068Z,940.79
2022-12-09T11:50:56.906Z,940.83
2022-12-09T11:51:56.887Z,940.86
2022-12-09T11:52:56.867Z,940.87
2022-12-09T11:54:01.723Z,940.85
2022-12-09T11:54:56.832Z,940.83
2022-12-09T11:55:56.809Z,940.82
2022-12-09T11:56:56.792Z,940.79
2022-12-09T11:57:56.769Z,940.79
2022-12-09T11:58:56.752Z,940.78
2022-12-09T11:59:56.730Z,940.75
2022-12-09T12:00:56.712Z,940.77
2022-12-09T12:01:56.723Z,940.7
2022-12-09T12:02:56.708Z,940.67
2022-12-09T12:03:56.653Z,940.66
2022-12-09T12:04:56.632Z,940.72
2022-12-09T12:05:56.636Z,940.71
2022-12-09T12:06:56.596Z,940.71
2022-12-09T12:07:56.638Z,940.7
2022-12-09T12:08:56.679Z,940.7
2022-12-09T12:09:56.548Z,940.65
2022-12-09T12:10:56.519Z,940.66
2022-12-09T12:11:56.496Z,940.65
2022-12-09T12:12:56.474Z,940.66
2022-12-09T12:13:56.455Z,940.63
2022-12-09T12:14:56.436Z,940.64
2022-12-09T12:15:56.414Z,940.59
2022-12-09T12:16:56.438Z,940.58
2022-12-09T12:17:57.110Z,940.6
2022-12-09T12:18:57.091Z,940.57
2022-12-09T12:19:57.067Z,940.57
2022-12-09T12:20:57.052Z,940.53
2022-12-09T12:21:57.052Z,940.51
2022-12-09T12:22:57.007Z,940.58
2022-12-09T12:23:56.992Z,940.59
2022-12-09T12:24:56.970Z,940.58
2022-12-09T12:25:56.951Z,940.56
2022-12-09T12:26:56.941Z,940.55
2022-12-09T12:27:56.913Z,940.53
2022-12-09T12:29:00.245Z,940.55
2022-12-09T12:29:56.873Z,940.57
2022-12-09T12:30:56.853Z,940.56
2022-12-09T12:31:56.851Z,940.55
2022-12-09T12:33:41.101Z,940.53
2022-12-09T12:34:41.360Z,940.57
2022-12-09T12:35:41.339Z,940.55
2022-12-09T12:36:41.322Z,940.6
2022-12-09T12:37:41.328Z,940.58
2022-12-09T12:38:41.279Z,940.62
2022-12-09T12:39:41.259Z,940.58
2022-12-09T12:40:41.243Z,940.57
2022-12-09T12:41:41.223Z,940.57
2022-12-09T12:42:41.207Z,940.54
2022-12-09T12:43:41.181Z,940.54
2022-12-09T12:44:41.164Z,940.56
2022-12-09T12:45:41.169Z,940.55
2022-12-09T12:46:41.123Z,940.5
2022-12-09T12:47:41.108Z,940.48
2022-12-09T12:48:41.110Z,940.48
2022-12-09T12:49:41.061Z,940.45